Time;durP1;ratioP1;P1;durP2;ratioP2;P2;SDS_P1;SDS_P2;PMS_P1;PMS_P2;Temp;Humidity;BMP_temperature;BMP_pressure;BME280_temperature;BME280_humidity;BME280_pressure;Samples;Min_cycle;Max_cycle;Signal;HPM_P1;HPM_P2
2022/08/15 00:02:43;;;;;;;5.75;3.00;;;;;;;;;;5076284;28;20028;-66
2022/08/15 00:05:31;;;;;;;5.22;3.20;;;;;;;;;;5077958;28;20414;-68
2022/08/15 00:08:17;;;;;;;5.82;3.30;;;;;;;;;;5083237;28;20032;-65
2022/08/15 00:11:18;;;;;;;5.40;3.55;;;;;;;;;;5083833;28;20060;-66
2022/08/15 00:14:06;;;;;;;6.25;3.13;;;;;;;;;;5083442;28;20032;-71
2022/08/15 00:16:52;;;;;;;5.72;3.22;;;;;;;;;;5067094;28;20032;-64
2022/08/15 00:19:40;;;;;;;6.25;3.20;;;;;;;;;;5055249;28;20040;-65
2022/08/15 00:22:25;;;;;;;4.07;2.78;;;;;;;;;;5076164;28;20033;-64
2022/08/15 00:25:11;;;;;;;4.28;2.80;;;;;;;;;;5078887;28;20028;-65
2022/08/15 00:27:56;;;;;;;7.75;3.15;;;;;;;;;;5071967;28;20419;-63
2022/08/15 00:30:43;;;;;;;5.50;2.83;;;;;;;;;;5067960;28;20036;-63
2022/08/15 00:33:30;;;;;;;5.47;3.10;;;;;;;;;;5079052;28;20085;-64
2022/08/15 00:36:15;;;;;;;4.68;2.63;;;;;;;;;;5075208;28;20111;-65
2022/08/15 00:39:02;;;;;;;5.30;2.92;;;;;;;;;;5071123;28;20035;-63
2022/08/15 00:41:48;;;;;;;6.05;3.22;;;;;;;;;;5069954;28;20109;-65
2022/08/15 00:44:54;;;;;;;5.85;3.67;;;;;;;;;;5076406;28;20418;-66
2022/08/15 00:47:41;;;;;;;4.90;3.13;;;;;;;;;;5088582;28;20119;-65
2022/08/15 00:50:26;;;;;;;4.28;3.20;;;;;;;;;;5068600;28;20066;-77
2022/08/15 00:53:12;;;;;;;5.47;2.88;;;;;;;;;;5091465;28;20463;-67
2022/08/15 00:55:58;;;;;;;5.05;3.30;;;;;;;;;;5085322;28;20074;-67
2022/08/15 00:58:44;;;;;;;6.50;3.15;;;;;;;;;;5083937;28;20035;-66
2022/08/15 01:01:30;;;;;;;6.25;2.97;;;;;;;;;;5073027;28;20028;-67
2022/08/15 01:04:17;;;;;;;4.72;3.17;;;;;;;;;;5078242;28;20031;-68
2022/08/15 01:07:04;;;;;;;6.10;3.33;;;;;;;;;;5086124;28;20035;-62
2022/08/15 01:09:50;;;;;;;4.35;3.15;;;;;;;;;;5082582;28;20036;-65
2022/08/15 01:12:37;;;;;;;4.72;3.15;;;;;;;;;;5085018;28;20024;-62
2022/08/15 01:15:23;;;;;;;3.97;2.88;;;;;;;;;;5083095;28;20127;-62
2022/08/15 01:18:08;;;;;;;4.35;3.05;;;;;;;;;;5072211;28;20047;-63
2022/08/15 01:20:58;;;;;;;3.90;3.08;;;;;;;;;;5074290;28;20032;-62
2022/08/15 01:24:07;;;;;;;6.47;3.22;;;;;;;;;;5066289;28;20354;-62
2022/08/15 01:26:53;;;;;;;5.28;3.60;;;;;;;;;;5073087;28;20103;-66
2022/08/15 01:29:38;;;;;;;6.47;3.47;;;;;;;;;;5076243;28;20042;-77
2022/08/15 01:32:36;;;;;;;5.45;3.47;;;;;;;;;;5074955;28;20064;-77
2022/08/15 01:35:21;;;;;;;4.30;2.75;;;;;;;;;;5078837;28;20024;-76
2022/08/15 01:38:20;;;;;;;5.28;2.92;;;;;;;;;;5076420;28;20383;-76
2022/08/15 01:41:17;;;;;;;5.72;3.28;;;;;;;;;;5086834;28;20027;-76
2022/08/15 01:44:09;;;;;;;6.07;3.03;;;;;;;;;;5060168;28;20041;-65
2022/08/15 01:47:02;;;;;;;7.18;3.17;;;;;;;;;;5065446;28;20044;-70
2022/08/15 01:49:47;;;;;;;4.63;2.92;;;;;;;;;;5081176;28;20150;-72
2022/08/15 01:52:46;;;;;;;9.50;4.78;;;;;;;;;;5077972;28;20053;-71
2022/08/15 01:55:45;;;;;;;8.53;3.60;;;;;;;;;;5084898;28;20036;-70
2022/08/15 01:58:35;;;;;;;6.20;3.55;;;;;;;;;;5085275;28;20024;-71
2022/08/15 02:01:34;;;;;;;8.38;3.60;;;;;;;;;;5077893;28;20024;-70
2022/08/15 02:04:20;;;;;;;;;;;;;;;;;;5073107;28;20033;-66
2022/08/15 02:07:08;;;;;;;6.97;3.40;;;;;;;;;;5059679;28;19971;-78
2022/08/15 02:09:55;;;;;;;9.90;3.83;;;;;;;;;;5073122;28;20135;-79
2022/08/15 02:12:41;;;;;;;5.40;3.05;;;;;;;;;;5087522;28;20032;-79
2022/08/15 02:15:26;;;;;;;7.03;3.33;;;;;;;;;;5082153;28;20024;-78
2022/08/15 02:18:12;;;;;;;7.90;3.00;;;;;;;;;;5080653;28;20029;-79
2022/08/15 02:20:57;;;;;;;5.18;2.90;;;;;;;;;;5077652;28;20038;-67
2022/08/15 02:23:43;;;;;;;4.15;2.78;;;;;;;;;;5074975;28;20036;-64
2022/08/15 02:26:28;;;;;;;7.40;3.75;;;;;;;;;;5087064;28;20443;-62
2022/08/15 02:29:14;;;;;;;5.85;3.20;;;;;;;;;;5077626;28;20036;-64
2022/08/15 02:32:04;;;;;;;5.72;2.97;;;;;;;;;;5083464;28;20036;-63
2022/08/15 02:34:50;;;;;;;9.07;3.83;;;;;;;;;;5072354;28;20059;-63
2022/08/15 02:37:37;;;;;;;7.18;2.88;;;;;;;;;;5072490;28;20110;-64
2022/08/15 02:40:22;;;;;;;8.93;3.83;;;;;;;;;;5077471;28;20032;-66
2022/08/15 02:43:09;;;;;;;5.88;3.00;;;;;;;;;;5073645;28;20036;-66
2022/08/15 02:45:57;;;;;;;7.00;3.25;;;;;;;;;;5072667;28;20045;-64
2022/08/15 02:48:46;;;;;;;6.28;3.03;;;;;;;;;;5054814;28;20045;-66
2022/08/15 02:51:32;;;;;;;7.82;3.42;;;;;;;;;;5080355;28;20111;-66
2022/08/15 02:54:19;;;;;;;6.70;3.08;;;;;;;;;;5066432;28;20029;-67
2022/08/15 02:57:04;;;;;;;5.72;3.13;;;;;;;;;;5060491;28;20082;-67
2022/08/15 02:59:50;;;;;;;5.25;2.97;;;;;;;;;;5076388;28;20161;-78
2022/08/15 03:02:59;;;;;;;5.25;3.33;;;;;;;;;;5073527;28;20508;-66
2022/08/15 03:05:46;;;;;;;6.07;2.97;;;;;;;;;;5079279;28;20061;-66
2022/08/15 03:08:32;;;;;;;6.85;3.25;;;;;;;;;;5072764;28;20475;-65
2022/08/15 03:11:18;;;;;;;5.03;3.03;;;;;;;;;;5083189;28;20039;-66
2022/08/15 03:14:07;;;;;;;7.43;3.83;;;;;;;;;;5071734;28;20119;-67
2022/08/15 03:16:52;;;;;;;;;;;;;;;;;;5072453;28;20032;-70
2022/08/15 03:19:38;;;;;;;4.90;3.08;;;;;;;;;;5075221;28;19928;-66
2022/08/15 03:22:23;;;;;;;8.48;3.03;;;;;;;;;;5081097;28;20028;-67
2022/08/15 03:25:09;;;;;;;5.45;2.72;;;;;;;;;;5073181;28;20073;-67
2022/08/15 03:27:55;;;;;;;5.95;2.60;;;;;;;;;;5085865;28;20036;-67
2022/08/15 03:30:41;;;;;;;6.85;2.97;;;;;;;;;;5068427;28;20032;-68
2022/08/15 03:33:28;;;;;;;7.88;3.17;;;;;;;;;;5072473;28;20044;-66
2022/08/15 03:36:15;;;;;;;4.90;3.05;;;;;;;;;;5080884;28;20082;-66
2022/08/15 03:39:01;;;;;;;4.55;2.83;;;;;;;;;;5079585;28;20111;-80
2022/08/15 03:41:46;;;;;;;4.47;2.88;;;;;;;;;;5072092;28;20021;-78
2022/08/15 03:44:32;;;;;;;3.72;2.60;;;;;;;;;;5073641;28;20063;-78
2022/08/15 03:47:18;;;;;;;9.15;3.40;;;;;;;;;;5078223;28;20028;-79
2022/08/15 03:50:05;;;;;;;7.45;2.97;;;;;;;;;;5071351;28;20447;-79
2022/08/15 03:52:52;;;;;;;4.05;2.58;;;;;;;;;;5070310;28;20467;-79
2022/08/15 03:55:39;;;;;;;5.70;3.20;;;;;;;;;;5074151;28;20028;-63
2022/08/15 03:58:24;;;;;;;5.13;2.75;;;;;;;;;;5074083;28;20035;-63
2022/08/15 04:01:17;;;;;;;6.57;3.10;;;;;;;;;;5079531;28;20027;-62
2022/08/15 04:04:04;;;;;;;4.95;2.85;;;;;;;;;;5085236;28;20020;-63
2022/08/15 04:06:49;;;;;;;5.68;2.53;;;;;;;;;;5077890;28;20466;-64
2022/08/15 04:09:35;;;;;;;8.52;3.05;;;;;;;;;;5085147;28;20115;-63
2022/08/15 04:12:30;;;;;;;7.30;3.25;;;;;;;;;;5077428;28;20098;-63
2022/08/15 04:15:16;;;;;;;5.72;2.63;;;;;;;;;;5087851;28;20032;-67
2022/08/15 04:18:01;;;;;;;6.25;3.58;;;;;;;;;;5080958;28;20024;-69
2022/08/15 04:20:47;;;;;;;5.90;2.72;;;;;;;;;;5086987;28;20058;-66
2022/08/15 04:23:34;;;;;;;4.47;2.72;;;;;;;;;;5085910;28;20028;-67
2022/08/15 04:26:19;;;;;;;4.53;2.90;;;;;;;;;;5093420;28;20031;-67
2022/08/15 04:29:05;;;;;;;4.05;2.50;;;;;;;;;;5070276;28;20040;-67
2022/08/15 04:31:50;;;;;;;6.50;2.95;;;;;;;;;;5094738;28;20482;-63
2022/08/15 04:34:38;;;;;;;4.60;2.60;;;;;;;;;;5094118;28;20020;-68
2022/08/15 04:37:23;;;;;;;5.57;2.67;;;;;;;;;;5085528;28;20224;-68
2022/08/15 04:40:10;;;;;;;5.90;3.47;;;;;;;;;;5069089;28;20027;-68
2022/08/15 04:42:58;;;;;;;5.82;2.80;;;;;;;;;;5080814;28;20020;-68
2022/08/15 04:45:43;;;;;;;7.55;2.70;;;;;;;;;;5072736;28;20196;-69
2022/08/15 04:48:30;;;;;;;4.10;2.40;;;;;;;;;;5073138;28;20103;-74
2022/08/15 04:51:16;;;;;;;3.55;2.53;;;;;;;;;;5074803;28;20169;-76
2022/08/15 04:54:03;;;;;;;4.28;2.75;;;;;;;;;;5057111;28;20070;-78
2022/08/15 04:56:48;;;;;;;3.78;2.50;;;;;;;;;;5079465;28;20039;-80
2022/08/15 04:59:35;;;;;;;4.40;2.72;;;;;;;;;;5068433;28;20437;-79
2022/08/15 05:02:22;;;;;;;4.60;2.30;;;;;;;;;;5077140;28;20028;-80
2022/08/15 05:05:10;;;;;;;3.75;2.50;;;;;;;;;;5087569;28;20029;-78
2022/08/15 05:07:55;;;;;;;3.72;2.50;;;;;;;;;;5084974;28;20468;-71
2022/08/15 05:10:42;;;;;;;4.10;2.60;;;;;;;;;;5072120;28;20043;-71
2022/08/15 05:13:29;;;;;;;4.38;2.42;;;;;;;;;;5093171;28;20190;-72
2022/08/15 05:16:15;;;;;;;6.28;3.10;;;;;;;;;;5092680;28;20028;-72
2022/08/15 05:19:01;;;;;;;4.35;2.63;;;;;;;;;;5077412;28;20107;-72
2022/08/15 05:21:47;;;;;;;5.15;2.40;;;;;;;;;;5070674;28;20029;-72
2022/08/15 05:24:32;;;;;;;3.75;2.17;;;;;;;;;;5072431;28;20040;-72
2022/08/15 05:27:18;;;;;;;3.20;2.13;;;;;;;;;;5067870;28;20409;-77
2022/08/15 05:30:26;;;;;;;3.38;2.22;;;;;;;;;;5086285;28;20120;-68
2022/08/15 05:33:15;;;;;;;3.40;2.22;;;;;;;;;;5100781;28;20486;-68
2022/08/15 05:36:05;;;;;;;6.35;2.60;;;;;;;;;;5076907;28;20048;-69
2022/08/15 05:38:58;;;;;;;3.22;2.20;;;;;;;;;;4999871;28;20535;-70
2022/08/15 05:42:03;;;;;;;4.07;2.22;;;;;;;;;;5010032;28;20475;-70
2022/08/15 05:44:57;;;;;;;4.07;2.13;;;;;;;;;;5024274;28;20037;-68
2022/08/15 05:47:54;;;;;;;4.15;2.40;;;;;;;;;;5027762;28;20108;-71
2022/08/15 05:50:55;;;;;;;3.80;2.22;;;;;;;;;;4999185;28;20117;-69
2022/08/15 05:53:59;;;;;;;4.72;2.15;;;;;;;;;;5018562;28;20140;-69
2022/08/15 05:56:52;;;;;;;3.78;2.40;;;;;;;;;;5014587;28;20069;-71
2022/08/15 06:00:02;;;;;;;3.35;2.53;;;;;;;;;;5028398;28;20488;-70
2022/08/15 06:03:00;;;;;;;4.03;2.20;;;;;;;;;;4995180;28;20057;-65
2022/08/15 06:05:48;;;;;;;3.05;1.98;;;;;;;;;;5016515;28;20440;-67
2022/08/15 06:08:36;;;;;;;3.45;2.30;;;;;;;;;;5023870;28;20104;-67
2022/08/15 06:11:23;;;;;;;7.85;2.40;;;;;;;;;;5011329;28;20485;-67
2022/08/15 06:14:16;;;;;;;4.22;2.30;;;;;;;;;;5016424;28;20470;-66
2022/08/15 06:17:04;;;;;;;4.70;2.28;;;;;;;;;;5030970;28;20115;-67
2022/08/15 06:19:50;;;;;;;4.80;1.88;;;;;;;;;;5041526;28;20119;-64
2022/08/15 06:22:55;;;;;;;7.75;2.58;;;;;;;;;;5051170;28;20032;-74
2022/08/15 06:25:40;;;;;;;5.93;2.42;;;;;;;;;;5073687;28;20103;-76
2022/08/15 06:28:29;;;;;;;4.78;2.22;;;;;;;;;;5078205;28;20104;-75
2022/08/15 06:31:20;;;;;;;3.38;2.45;;;;;;;;;;5088916;28;20028;-78
2022/08/15 06:34:24;;;;;;;4.03;2.25;;;;;;;;;;5073545;28;20036;-79
2022/08/15 06:37:18;;;;;;;4.38;2.10;;;;;;;;;;5076056;28;20134;-81
2022/08/15 06:40:13;;;;;;;3.97;2.20;;;;;;;;;;5065886;28;20043;-68
2022/08/15 06:42:59;;;;;;;4.63;2.50;;;;;;;;;;5091838;28;20086;-74
2022/08/15 06:45:47;;;;;;;4.25;2.20;;;;;;;;;;5063301;28;20032;-72
2022/08/15 06:48:35;;;;;;;5.38;2.10;;;;;;;;;;5079160;28;20077;-73
2022/08/15 06:51:21;;;;;;;5.10;2.00;;;;;;;;;;5061525;28;20017;-74
2022/08/15 06:54:11;;;;;;;6.72;2.38;;;;;;;;;;5067676;28;20017;-73
2022/08/15 06:57:02;;;;;;;3.83;2.15;;;;;;;;;;5082740;28;20028;-80
2022/08/15 06:59:48;;;;;;;6.13;2.10;;;;;;;;;;5083716;28;20075;-74
2022/08/15 07:02:40;;;;;;;3.65;2.05;;;;;;;;;;5066485;28;20348;-73
2022/08/15 07:05:32;;;;;;;4.20;1.75;;;;;;;;;;5080638;28;20036;-74
2022/08/15 07:08:30;;;;;;;4.78;2.05;;;;;;;;;;5091330;28;20442;-73
2022/08/15 07:11:31;;;;;;;3.17;1.97;;;;;;;;;;5071224;28;20082;-75
2022/08/15 07:14:30;;;;;;;3.88;2.28;;;;;;;;;;5059989;28;20293;-73
2022/08/15 07:17:22;;;;;;;4.20;2.35;;;;;;;;;;5069776;28;20478;-69
2022/08/15 07:20:08;;;;;;;3.35;1.80;;;;;;;;;;5083168;28;20040;-80
2022/08/15 07:22:54;;;;;;;10.63;2.65;;;;;;;;;;5075398;28;20167;-77
2022/08/15 07:25:44;;;;;;;2.38;1.83;;;;;;;;;;5076082;28;20457;-76
2022/08/15 07:28:31;;;;;;;2.67;1.92;;;;;;;;;;5084015;28;20033;-76
2022/08/15 07:31:28;;;;;;;3.20;2.17;;;;;;;;;;5080654;28;20032;-78
2022/08/15 07:34:25;;;;;;;2.45;1.92;;;;;;;;;;5081627;28;20483;-74
2022/08/15 07:37:15;;;;;;;4.32;2.45;;;;;;;;;;5076705;28;20067;-68
2022/08/15 07:40:06;;;;;;;3.47;1.60;;;;;;;;;;5087836;28;20027;-69
2022/08/15 07:42:52;;;;;;;3.47;1.80;;;;;;;;;;5070657;28;20033;-67
2022/08/15 07:45:40;;;;;;;2.88;1.90;;;;;;;;;;5075859;28;20044;-68
2022/08/15 07:48:28;;;;;;;2.92;1.92;;;;;;;;;;5079463;28;20386;-67
2022/08/15 07:51:14;;;;;;;3.05;1.77;;;;;;;;;;5084814;28;20028;-67
2022/08/15 07:54:18;;;;;;;3.45;1.73;;;;;;;;;;5084299;28;20025;-64
2022/08/15 07:57:06;;;;;;;3.80;1.63;;;;;;;;;;5085383;28;20032;-73
2022/08/15 08:00:06;;;;;;;4.13;1.77;;;;;;;;;;5072341;28;20032;-73
2022/08/15 08:03:01;;;;;;;4.93;1.90;;;;;;;;;;5080919;28;20155;-77
2022/08/15 08:06:05;;;;;;;5.50;2.08;;;;;;;;;;5090802;28;20390;-75
2022/08/15 08:08:56;;;;;;;3.25;2.00;;;;;;;;;;5079263;28;20446;-77
2022/08/15 08:11:42;;;;;;;2.72;1.70;;;;;;;;;;5076629;28;20115;-64
2022/08/15 08:14:37;;;;;;;3.97;1.70;;;;;;;;;;5068886;28;20438;-71
2022/08/15 08:17:26;;;;;;;2.58;2.10;;;;;;;;;;5066429;28;20025;-71
2022/08/15 08:20:18;;;;;;;3.97;1.33;;;;;;;;;;5066278;28;20031;-73
2022/08/15 08:23:21;;;;;;;5.95;1.63;;;;;;;;;;5079319;28;20028;-72
2022/08/15 08:26:07;;;;;;;2.47;1.58;;;;;;;;;;5081657;28;20020;-72
2022/08/15 08:29:11;;;;;;;1.42;1.25;;;;;;;;;;5078977;28;20050;-76
2022/08/15 08:32:00;;;;;;;4.05;1.70;;;;;;;;;;5076576;28;20040;-79
2022/08/15 08:34:48;;;;;;;3.28;1.42;;;;;;;;;;5076001;28;20086;-78
2022/08/15 08:37:41;;;;;;;3.00;1.42;;;;;;;;;;5101057;28;20023;-78
2022/08/15 08:43:39;;;;;;;1.90;1.13;;;;;;;;;;5086152;28;20028;-81
2022/08/15 08:46:33;;;;;;;1.92;1.30;;;;;;;;;;5076829;28;20029;-79
2022/08/15 08:49:25;;;;;;;5.07;1.60;;;;;;;;;;5088681;28;20466;-78
2022/08/15 08:52:24;;;;;;;1.75;1.45;;;;;;;;;;5044705;28;20508;-71
2022/08/15 08:55:09;;;;;;;2.45;1.58;;;;;;;;;;5078558;28;20059;-72
2022/08/15 08:58:07;;;;;;;2.15;1.35;;;;;;;;;;5085751;28;20036;-74
2022/08/15 09:00:55;;;;;;;1.65;1.40;;;;;;;;;;5079096;28;20119;-72
2022/08/15 09:03:46;;;;;;;3.58;1.48;;;;;;;;;;5087459;28;20042;-72
2022/08/15 09:06:36;;;;;;;3.40;1.52;;;;;;;;;;5082632;28;20103;-67
2022/08/15 09:09:28;;;;;;;3.20;1.83;;;;;;;;;;5077514;28;20032;-76
2022/08/15 09:15:23;;;;;;;1.50;1.27;;;;;;;;;;5087979;28;20028;-78
2022/08/15 09:18:14;;;;;;;1.55;1.30;;;;;;;;;;5079303;28;20024;-78
2022/08/15 09:21:00;;;;;;;1.50;1.40;;;;;;;;;;5069113;28;20056;-75
2022/08/15 09:23:46;;;;;;;1.80;1.20;;;;;;;;;;5079072;28;20089;-77
2022/08/15 09:26:35;;;;;;;1.58;1.20;;;;;;;;;;5086553;28;20502;-68
2022/08/15 09:29:31;;;;;;;1.42;1.17;;;;;;;;;;5079105;28;20504;-74
2022/08/15 09:32:28;;;;;;;2.75;1.50;;;;;;;;;;5066018;28;20025;-72
2022/08/15 09:35:20;;;;;;;1.75;1.23;;;;;;;;;;5090595;28;20024;-72
2022/08/15 09:38:05;;;;;;;1.90;1.55;;;;;;;;;;5085442;28;20032;-71
2022/08/15 09:40:51;;;;;;;3.40;1.40;;;;;;;;;;5079658;28;20479;-73
2022/08/15 09:43:36;;;;;;;2.70;1.30;;;;;;;;;;5088913;28;20031;-64
2022/08/15 09:46:54;;;;;;;1.73;1.58;;;;;;;;;;5077889;28;20086;-67
2022/08/15 09:49:49;;;;;;;3.20;1.75;;;;;;;;;;5059164;28;20131;-67
2022/08/15 09:52:38;;;;;;;2.92;1.80;;;;;;;;;;5078371;28;20032;-67
2022/08/15 09:55:44;;;;;;;2.20;1.58;;;;;;;;;;5071223;28;20020;-65
2022/08/15 09:58:31;;;;;;;3.58;1.55;;;;;;;;;;5070405;28;20088;-66
2022/08/15 10:01:23;;;;;;;1.30;1.17;;;;;;;;;;5075843;28;20028;-70
2022/08/15 10:04:10;;;;;;;2.03;1.20;;;;;;;;;;5050501;28;20024;-65
2022/08/15 10:07:01;;;;;;;1.13;1.02;;;;;;;;;;5077011;28;20089;-67
2022/08/15 10:09:56;;;;;;;1.80;1.52;;;;;;;;;;5060062;28;20029;-67
2022/08/15 10:13:01;;;;;;;3.33;2.17;;;;;;;;;;5045871;28;20039;-66
2022/08/15 10:15:48;;;;;;;1.55;1.40;;;;;;;;;;5082095;28;20086;-68
2022/08/15 10:18:39;;;;;;;1.77;1.42;;;;;;;;;;5067658;28;20024;-64
2022/08/15 10:21:32;;;;;;;2.38;1.40;;;;;;;;;;5079355;28;20181;-64
2022/08/15 10:24:21;;;;;;;3.55;1.88;;;;;;;;;;5088560;28;20103;-62
2022/08/15 10:27:07;;;;;;;3.15;2.10;;;;;;;;;;5083963;28;20044;-62
2022/08/15 10:30:08;;;;;;;21.77;12.38;;;;;;;;;;5078878;28;20036;-62
2022/08/15 10:32:54;;;;;;;8.20;6.00;;;;;;;;;;5082287;28;20378;-68
2022/08/15 10:35:44;;;;;;;3.90;2.30;;;;;;;;;;5086089;28;20109;-63
2022/08/15 10:38:31;;;;;;;8.50;5.10;;;;;;;;;;5068066;28;20039;-73
2022/08/15 10:41:31;;;;;;;3.03;1.70;;;;;;;;;;5075388;28;20139;-64
2022/08/15 10:44:17;;;;;;;5.45;2.60;;;;;;;;;;5066350;28;20028;-63
2022/08/15 10:47:13;;;;;;;3.90;1.98;;;;;;;;;;5079778;28;20028;-63
2022/08/15 10:50:15;;;;;;;2.33;1.77;;;;;;;;;;5078770;28;20050;-63
2022/08/15 10:53:30;;;;;;;11.05;5.85;;;;;;;;;;5086427;28;20051;-63
2022/08/15 10:56:20;;;;;;;15.23;6.88;;;;;;;;;;5010590;28;20044;-83
2022/08/15 10:59:12;;;;;;;7.05;3.42;;;;;;;;;;5062328;28;20374;-76
2022/08/15 11:02:18;;;;;;;9.18;4.30;;;;;;;;;;5075899;28;20024;-83
2022/08/15 11:05:11;;;;;;;7.88;4.22;;;;;;;;;;5070313;28;20493;-80
2022/08/15 11:07:57;;;;;;;5.03;3.10;;;;;;;;;;5075129;28;20372;-79
2022/08/15 11:10:42;;;;;;;2.70;1.90;;;;;;;;;;5077378;28;20024;-81
2022/08/15 11:13:31;;;;;;;3.03;1.75;;;;;;;;;;5092834;28;20026;-77
2022/08/15 11:16:27;;;;;;;2.78;1.70;;;;;;;;;;5098575;28;20452;-80
2022/08/15 11:19:19;;;;;;;3.72;2.22;;;;;;;;;;5073289;28;20431;-62
2022/08/15 11:22:06;;;;;;;3.58;1.95;;;;;;;;;;5058876;28;20071;-62
2022/08/15 11:24:56;;;;;;;3.33;2.00;;;;;;;;;;5071462;28;20115;-62
2022/08/15 11:27:45;;;;;;;3.40;1.60;;;;;;;;;;5080169;28;20021;-61
2022/08/15 11:30:33;;;;;;;5.28;2.13;;;;;;;;;;5076341;28;20104;-65
2022/08/15 11:33:24;;;;;;;2.90;2.03;;;;;;;;;;5075589;28;20051;-69
2022/08/15 11:36:17;;;;;;;5.05;2.13;;;;;;;;;;5088267;28;20032;-69
2022/08/15 11:39:12;;;;;;;3.20;2.15;;;;;;;;;;5072744;28;20054;-71
2022/08/15 11:42:00;;;;;;;2.45;1.50;;;;;;;;;;5079391;28;20060;-70
2022/08/15 11:44:52;;;;;;;3.97;2.33;;;;;;;;;;5084655;28;20403;-69
2022/08/15 11:47:43;;;;;;;2.42;2.03;;;;;;;;;;5079121;28;20067;-70
2022/08/15 11:50:35;;;;;;;1.85;1.60;;;;;;;;;;5093798;28;20027;-70
2022/08/15 11:53:20;;;;;;;5.18;2.22;;;;;;;;;;5083056;28;20024;-66
2022/08/15 11:56:07;;;;;;;3.40;1.75;;;;;;;;;;5092124;28;20028;-71
2022/08/15 11:58:53;;;;;;;2.78;1.80;;;;;;;;;;5085543;28;20051;-69
2022/08/15 12:01:38;;;;;;;5.07;1.90;;;;;;;;;;5070262;28;20038;-69
2022/08/15 12:04:28;;;;;;;3.97;1.60;;;;;;;;;;5070321;28;20024;-70
2022/08/15 12:07:26;;;;;;;1.98;1.77;;;;;;;;;;5080775;28;20122;-68
2022/08/15 12:10:25;;;;;;;3.72;1.88;;;;;;;;;;5074227;28;20027;-80
2022/08/15 12:13:15;;;;;;;2.85;1.83;;;;;;;;;;5074900;28;20056;-67
2022/08/15 12:16:01;;;;;;;4.97;2.00;;;;;;;;;;5083467;28;20031;-69
2022/08/15 12:18:48;;;;;;;3.25;1.80;;;;;;;;;;5082066;28;20039;-69
2022/08/15 12:21:45;;;;;;;3.88;1.70;;;;;;;;;;5092670;28;20063;-69
2022/08/15 12:24:32;;;;;;;1.83;1.67;;;;;;;;;;5089933;28;20024;-69
2022/08/15 12:27:18;;;;;;;5.57;2.30;;;;;;;;;;5071376;28;20028;-68
2022/08/15 12:30:05;;;;;;;3.45;1.77;;;;;;;;;;5101583;28;20506;-69
2022/08/15 12:32:51;;;;;;;5.50;2.40;;;;;;;;;;5091819;28;20058;-61
2022/08/15 12:35:37;;;;;;;3.83;1.85;;;;;;;;;;5095732;28;20123;-61
2022/08/15 12:38:23;;;;;;;3.42;2.22;;;;;;;;;;5075070;28;20028;-61
2022/08/15 12:41:09;;;;;;;2.95;2.15;;;;;;;;;;5067885;28;20434;-61
2022/08/15 12:43:55;;;;;;;5.40;1.85;;;;;;;;;;5071733;28;20024;-62
2022/08/15 12:46:56;;;;;;;3.13;2.30;;;;;;;;;;5070207;28;20056;-68
2022/08/15 12:49:41;;;;;;;3.55;1.75;;;;;;;;;;5083994;28;20529;-70
2022/08/15 12:52:28;;;;;;;2.95;1.92;;;;;;;;;;5084121;28;20054;-69
2022/08/15 12:55:13;;;;;;;2.78;1.80;;;;;;;;;;5080610;28;20060;-71
2022/08/15 12:57:59;;;;;;;4.15;2.08;;;;;;;;;;5069472;28;20036;-70
2022/08/15 13:00:45;;;;;;;3.75;1.98;;;;;;;;;;5071969;28;20040;-71
2022/08/15 13:03:33;;;;;;;2.80;2.08;;;;;;;;;;5073755;28;20062;-68
2022/08/15 13:06:24;;;;;;;3.70;2.40;;;;;;;;;;5066864;28;20076;-75
2022/08/15 13:09:10;;;;;;;4.22;2.17;;;;;;;;;;5065660;28;20029;-60
2022/08/15 13:11:56;;;;;;;3.33;1.90;;;;;;;;;;5072070;28;20081;-60
2022/08/15 13:14:42;;;;;;;2.28;1.80;;;;;;;;;;5079816;28;20117;-64
2022/08/15 13:17:27;;;;;;;2.65;1.80;;;;;;;;;;5066671;28;20173;-61
2022/08/15 13:23:38;;;;;;;3.20;2.10;;;;;;;;;;5085654;28;20020;-69
2022/08/15 13:26:25;;;;;;;5.25;1.90;;;;;;;;;;5069016;28;20478;-63
2022/08/15 13:29:12;;;;;;;3.20;1.90;;;;;;;;;;5060750;28;20033;-61
2022/08/15 13:31:59;;;;;;;2.35;1.75;;;;;;;;;;5087875;28;20028;-62
2022/08/15 13:34:45;;;;;;;3.03;2.00;;;;;;;;;;5090706;28;20028;-61
2022/08/15 13:37:30;;;;;;;2.13;1.92;;;;;;;;;;5076852;28;20024;-63
2022/08/15 13:40:18;;;;;;;4.68;2.30;;;;;;;;;;5084460;28;20529;-62
2022/08/15 13:43:04;;;;;;;3.22;2.28;;;;;;;;;;5069376;28;20032;-67
2022/08/15 13:45:50;;;;;;;4.22;2.60;;;;;;;;;;5075359;28;20024;-76
2022/08/15 13:48:42;;;;;;;5.75;2.28;;;;;;;;;;5098165;28;20039;-74
2022/08/15 13:51:36;;;;;;;3.65;1.95;;;;;;;;;;5064551;28;20016;-75
2022/08/15 13:54:25;;;;;;;4.70;2.20;;;;;;;;;;5065019;28;20043;-75
2022/08/15 13:57:13;;;;;;;3.70;2.15;;;;;;;;;;5082041;28;20039;-75
2022/08/15 13:59:58;;;;;;;3.08;2.47;;;;;;;;;;5086143;28;20038;-78
2022/08/15 14:02:46;;;;;;;4.65;2.50;;;;;;;;;;5070153;28;20081;-61
2022/08/15 14:05:31;;;;;;;4.28;2.53;;;;;;;;;;5077571;28;20120;-64
2022/08/15 14:08:17;;;;;;;4.47;2.05;;;;;;;;;;5073961;28;20027;-66
2022/08/15 14:11:03;;;;;;;6.63;2.60;;;;;;;;;;5078841;28;20119;-65
2022/08/15 14:13:48;;;;;;;3.15;2.20;;;;;;;;;;5082931;28;20042;-64
2022/08/15 14:16:35;;;;;;;5.70;2.28;;;;;;;;;;5076027;28;20058;-65
2022/08/15 14:19:21;;;;;;;2.97;2.20;;;;;;;;;;5058657;28;20028;-61
2022/08/15 14:22:07;;;;;;;4.50;2.35;;;;;;;;;;5076400;28;20031;-65
2022/08/15 14:24:52;;;;;;;3.83;2.22;;;;;;;;;;5074287;28;20029;-66
2022/08/15 14:27:38;;;;;;;2.35;2.10;;;;;;;;;;5085747;28;20080;-66
2022/08/15 14:30:25;;;;;;;6.13;2.35;;;;;;;;;;5094720;28;20038;-65
2022/08/15 14:33:11;;;;;;;3.58;2.20;;;;;;;;;;5079854;28;20028;-66
2022/08/15 14:35:57;;;;;;;4.00;2.53;;;;;;;;;;5087779;28;20027;-64
2022/08/15 14:38:42;;;;;;;7.22;2.50;;;;;;;;;;5085705;28;20375;-61
2022/08/15 14:41:29;;;;;;;5.25;2.40;;;;;;;;;;5086246;28;20055;-71
2022/08/15 14:44:16;;;;;;;6.90;2.92;;;;;;;;;;5083546;28;20116;-72
2022/08/15 14:47:02;;;;;;;4.43;2.70;;;;;;;;;;5077390;28;20113;-71
2022/08/15 14:49:50;;;;;;;3.53;2.30;;;;;;;;;;5060987;28;20036;-69
2022/08/15 14:52:36;;;;;;;5.32;2.33;;;;;;;;;;5078594;28;20030;-69
2022/08/15 14:55:24;;;;;;;4.68;2.30;;;;;;;;;;5083885;28;20024;-68
2022/08/15 14:58:10;;;;;;;5.50;2.20;;;;;;;;;;5080203;28;20032;-65
2022/08/15 15:00:57;;;;;;;5.50;2.60;;;;;;;;;;5078320;28;20504;-65
2022/08/15 15:03:42;;;;;;;7.00;2.42;;;;;;;;;;5074159;28;20104;-67
2022/08/15 15:06:28;;;;;;;4.68;2.72;;;;;;;;;;5080952;28;20114;-65
2022/08/15 15:09:16;;;;;;;8.10;2.67;;;;;;;;;;5067632;28;20051;-64
2022/08/15 15:12:01;;;;;;;3.05;2.30;;;;;;;;;;5076582;28;20038;-65
2022/08/15 15:14:47;;;;;;;6.55;2.85;;;;;;;;;;5080664;28;20020;-65
2022/08/15 15:17:33;;;;;;;4.10;2.35;;;;;;;;;;5062991;28;20025;-71
2022/08/15 15:20:19;;;;;;;5.25;2.72;;;;;;;;;;5061687;28;20111;-70
2022/08/15 15:23:04;;;;;;;5.05;2.78;;;;;;;;;;5081395;28;20060;-72
2022/08/15 15:25:50;;;;;;;4.10;2.38;;;;;;;;;;5082468;28;20028;-71
2022/08/15 15:28:37;;;;;;;4.00;2.25;;;;;;;;;;5086458;28;20028;-70
2022/08/15 15:31:24;;;;;;;4.47;2.03;;;;;;;;;;5086515;28;20031;-71
2022/08/15 15:34:12;;;;;;;5.35;2.67;;;;;;;;;;5072438;28;20374;-77
2022/08/15 15:37:00;;;;;;;3.20;1.70;;;;;;;;;;5068735;28;20093;-79
2022/08/15 15:39:45;;;;;;;2.25;1.90;;;;;;;;;;5095417;28;20047;-74
2022/08/15 15:42:31;;;;;;;4.47;2.08;;;;;;;;;;5092677;28;20109;-83
2022/08/15 15:45:17;;;;;;;5.53;2.13;;;;;;;;;;5091969;28;20028;-77
2022/08/15 15:48:02;;;;;;;4.13;1.83;;;;;;;;;;5088202;28;20482;-81
2022/08/15 15:50:48;;;;;;;3.85;1.98;;;;;;;;;;5073540;28;20029;-72
2022/08/15 15:53:34;;;;;;;5.60;1.70;;;;;;;;;;5071148;28;20410;-70
2022/08/15 15:56:19;;;;;;;2.45;1.50;;;;;;;;;;5055286;28;20021;-72
2022/08/15 15:59:05;;;;;;;3.47;1.92;;;;;;;;;;5077698;28;20021;-74
2022/08/15 16:01:51;;;;;;;4.10;2.05;;;;;;;;;;5063882;28;20123;-73
2022/08/15 16:04:36;;;;;;;2.67;1.77;;;;;;;;;;5051385;28;20097;-73
2022/08/15 16:07:22;;;;;;;4.80;2.33;;;;;;;;;;5071698;28;20448;-72
2022/08/15 16:10:27;;;;;;;2.53;1.75;;;;;;;;;;5068331;28;20056;-76
2022/08/15 16:13:39;;;;;;;2.88;1.50;;;;;;;;;;5072655;28;20043;-73
2022/08/15 16:16:30;;;;;;;1.63;1.27;;;;;;;;;;5079309;28;20098;-74
2022/08/15 16:19:16;;;;;;;1.75;1.50;;;;;;;;;;5060860;28;20120;-74
2022/08/15 16:22:05;;;;;;;3.08;1.63;;;;;;;;;;5065424;28;20035;-74
2022/08/15 16:24:50;;;;;;;;;;;;;;;;;;5085465;28;20463;-74
2022/08/15 16:27:36;;;;;;;2.53;1.48;;;;;;;;;;5093091;28;20002;-71
2022/08/15 16:30:44;;;;;;;3.55;1.65;;;;;;;;;;5089332;28;20114;-74
2022/08/15 16:33:35;;;;;;;2.53;1.90;;;;;;;;;;5079092;28;20478;-74
2022/08/15 16:36:27;;;;;;;4.03;1.60;;;;;;;;;;5081182;28;20404;-73
2022/08/15 16:39:16;;;;;;;2.60;1.50;;;;;;;;;;5073205;28;20074;-74
2022/08/15 16:42:16;;;;;;;1.77;1.40;;;;;;;;;;5092614;28;20028;-74
2022/08/15 16:45:04;;;;;;;5.95;2.28;;;;;;;;;;5085137;28;20032;-73
2022/08/15 16:47:56;;;;;;;4.45;1.77;;;;;;;;;;5095066;28;20031;-74
2022/08/15 16:51:01;;;;;;;3.20;1.50;;;;;;;;;;5086620;28;20470;-73
2022/08/15 16:54:05;;;;;;;2.65;1.50;;;;;;;;;;5081381;28;20097;-75
2022/08/15 16:57:20;;;;;;;3.03;1.73;;;;;;;;;;5056350;28;20047;-73
2022/08/15 17:00:14;;;;;;;2.38;1.60;;;;;;;;;;5072213;28;20089;-74
2022/08/15 17:03:25;;;;;;;3.88;1.52;;;;;;;;;;5079082;28;20035;-74
2022/08/15 17:06:29;;;;;;;4.78;1.52;;;;;;;;;;5068248;28;20123;-77
2022/08/15 17:09:27;;;;;;;2.35;1.63;;;;;;;;;;5076856;28;20423;-73